VOZ954 YBBN-YSSY
Flight info
| Callsign | VOZ954 |
|---|---|
| Flight time | 1h 11m |
| Altitude | 36000 |
| Route | BN H91 IGDAM H652 TESAT |
| Aircraft | B738/M-SDE3FGIRWZH/LB1 |
Departure
| Time | 2026-04-23 04:33 |
|---|---|
| Airport | Brisbane International Airport (YBBN) |
Arrival
| Time | 2026-04-23 05:44 |
|---|---|
| Airport | Sydney Kingsford Smith International Airport (YSSY) |
| Time | Latitude | Longitude | Altitude | Speed | Heading |
|---|---|---|---|---|---|
| 2026-04-23 04:08 | -27.38807 | 153.12006 | 17 ft | 0 kts | 278° |
| 2026-04-23 04:24 | -27.38809 | 153.12024 | 19 ft | 4 kts | 278° |
| 2026-04-23 04:24 | -27.38813 | 153.12054 | 20 ft | 4 kts | 277° |
| 2026-04-23 04:24 | -27.38817 | 153.12085 | 18 ft | 4 kts | 281° |
| 2026-04-23 04:24 | -27.38823 | 153.12114 | 17 ft | 4 kts | 292° |
| 2026-04-23 04:25 | -27.38837 | 153.12138 | 19 ft | 4 kts | 321° |
| 2026-04-23 04:25 | -27.38858 | 153.12148 | 18 ft | 4 kts | 13° |
| 2026-04-23 04:25 | -27.38869 | 153.12144 | 18 ft | 1 kts | 24° |
| 2026-04-23 04:28 | -27.38791 | 153.12201 | 17 ft | 13 kts | 69° |
| 2026-04-23 04:28 | -27.38780 | 153.12306 | 19 ft | 14 kts | 51° |
| 2026-04-23 04:28 | -27.38689 | 153.12366 | 19 ft | 17 kts | 28° |
| 2026-04-23 04:28 | -27.38576 | 153.12428 | 17 ft | 18 kts | 26° |
| 2026-04-23 04:29 | -27.38466 | 153.12493 | 17 ft | 18 kts | 26° |
| 2026-04-23 04:29 | -27.38358 | 153.12555 | 19 ft | 17 kts | 27° |
| 2026-04-23 04:29 | -27.38253 | 153.12615 | 18 ft | 17 kts | 26° |
| 2026-04-23 04:29 | -27.38140 | 153.12680 | 18 ft | 19 kts | 28° |
| 2026-04-23 04:30 | -27.38016 | 153.12750 | 17 ft | 22 kts | 27° |
| 2026-04-23 04:30 | -27.37876 | 153.12830 | 17 ft | 22 kts | 26° |
| 2026-04-23 04:30 | -27.37739 | 153.12908 | 17 ft | 22 kts | 26° |
| 2026-04-23 04:30 | -27.37606 | 153.12984 | 17 ft | 21 kts | 27° |
| 2026-04-23 04:31 | -27.37477 | 153.13059 | 18 ft | 21 kts | 27° |
| 2026-04-23 04:31 | -27.37351 | 153.13130 | 17 ft | 20 kts | 27° |
| 2026-04-23 04:31 | -27.37274 | 153.13239 | 17 ft | 19 kts | 104° |
| 2026-04-23 04:31 | -27.37338 | 153.13369 | 19 ft | 19 kts | 126° |
| 2026-04-23 04:32 | -27.37446 | 153.13434 | 21 ft | 18 kts | 180° |
| 2026-04-23 04:32 | -27.37558 | 153.13378 | 21 ft | 18 kts | 208° |
| 2026-04-23 04:32 | -27.37784 | 153.13250 | 20 ft | 70 kts | 207° |
| 2026-04-23 04:32 | -27.38438 | 153.12877 | 21 ft | 138 kts | 207° |
| 2026-04-23 04:33 | -27.39438 | 153.12291 | 214 ft | 176 kts | 204° |
| 2026-04-23 04:33 | -27.40524 | 153.11691 | 1118 ft | 172 kts | 202° |
| 2026-04-23 04:33 | -27.41700 | 153.11065 | 1531 ft | 204 kts | 200° |
| 2026-04-23 04:33 | -27.43130 | 153.10818 | 1911 ft | 219 kts | 174° |
| 2026-04-23 04:34 | -27.44619 | 153.11232 | 2439 ft | 233 kts | 156° |
| 2026-04-23 04:34 | -27.46129 | 153.12109 | 3060 ft | 248 kts | 150° |
| 2026-04-23 04:34 | -27.47553 | 153.13154 | 4146 ft | 246 kts | 148° |
| 2026-04-23 04:34 | -27.49019 | 153.14160 | 4615 ft | 246 kts | 151° |
| 2026-04-23 04:35 | -27.50647 | 153.14688 | 5040 ft | 251 kts | 183° |
| 2026-04-23 04:35 | -27.52383 | 153.14331 | 5663 ft | 258 kts | 192° |
| 2026-04-23 04:35 | -27.54129 | 153.13884 | 6535 ft | 257 kts | 192° |
| 2026-04-23 04:35 | -27.55890 | 153.13418 | 7228 ft | 263 kts | 194° |
| 2026-04-23 04:36 | -27.57643 | 153.12767 | 8002 ft | 264 kts | 198° |
| 2026-04-23 04:36 | -27.59394 | 153.12056 | 8701 ft | 271 kts | 198° |
| 2026-04-23 04:36 | -27.61178 | 153.11335 | 9446 ft | 274 kts | 198° |
| 2026-04-23 04:36 | -27.63002 | 153.10645 | 10165 ft | 278 kts | 195° |
| 2026-04-23 04:37 | -27.64864 | 153.10019 | 10884 ft | 280 kts | 194° |
| 2026-04-23 04:37 | -27.66789 | 153.09390 | 11201 ft | 299 kts | 194° |
| 2026-04-23 04:37 | -27.68856 | 153.08715 | 11426 ft | 320 kts | 195° |
| 2026-04-23 04:37 | -27.71049 | 153.07991 | 11777 ft | 334 kts | 195° |
| 2026-04-23 04:38 | -27.73303 | 153.07242 | 12327 ft | 342 kts | 195° |
| 2026-04-23 04:38 | -27.75605 | 153.06474 | 12974 ft | 346 kts | 195° |
| 2026-04-23 04:38 | -27.77881 | 153.05713 | 13732 ft | 348 kts | 195° |
| 2026-04-23 04:38 | -27.80222 | 153.04930 | 14368 ft | 352 kts | 195° |
| 2026-04-23 04:39 | -27.82565 | 153.04121 | 15115 ft | 353 kts | 198° |
| 2026-04-23 04:39 | -27.84886 | 153.03163 | 15782 ft | 357 kts | 200° |
| 2026-04-23 04:39 | -27.87205 | 153.02130 | 16467 ft | 360 kts | 201° |
| 2026-04-23 04:39 | -27.89538 | 153.01077 | 17143 ft | 363 kts | 201° |
| 2026-04-23 04:40 | -27.91894 | 153.00020 | 17817 ft | 366 kts | 201° |
| 2026-04-23 04:40 | -27.94270 | 152.98965 | 18489 ft | 368 kts | 201° |
| 2026-04-23 04:40 | -27.96663 | 152.97910 | 19060 ft | 371 kts | 201° |
| 2026-04-23 04:40 | -27.99077 | 152.96851 | 19629 ft | 374 kts | 201° |
| 2026-04-23 04:41 | -28.01512 | 152.95783 | 20192 ft | 376 kts | 201° |
| 2026-04-23 04:41 | -28.03959 | 152.94711 | 20753 ft | 378 kts | 202° |
| 2026-04-23 04:41 | -28.06423 | 152.93631 | 21310 ft | 381 kts | 202° |
| 2026-04-23 04:41 | -28.08903 | 152.92544 | 21851 ft | 384 kts | 202° |
| 2026-04-23 04:42 | -28.11399 | 152.91442 | 22379 ft | 386 kts | 202° |
| 2026-04-23 04:42 | -28.13912 | 152.90325 | 22897 ft | 389 kts | 203° |
| 2026-04-23 04:42 | -28.16440 | 152.89198 | 23404 ft | 392 kts | 203° |
| 2026-04-23 04:42 | -28.18971 | 152.88069 | 23890 ft | 394 kts | 203° |
| 2026-04-23 04:43 | -28.21521 | 152.86931 | 24305 ft | 396 kts | 203° |
| 2026-04-23 04:43 | -28.24097 | 152.85782 | 24756 ft | 398 kts | 203° |
| 2026-04-23 04:43 | -28.26678 | 152.84631 | 25167 ft | 400 kts | 203° |
| 2026-04-23 04:43 | -28.29266 | 152.83476 | 25585 ft | 401 kts | 204° |
| 2026-04-23 04:44 | -28.31877 | 152.82310 | 25974 ft | 404 kts | 204° |
| 2026-04-23 04:44 | -28.34498 | 152.81139 | 26401 ft | 404 kts | 204° |
| 2026-04-23 04:44 | -28.37124 | 152.79965 | 26783 ft | 406 kts | 204° |
| 2026-04-23 04:44 | -28.39749 | 152.78791 | 27183 ft | 407 kts | 204° |
| 2026-04-23 04:45 | -28.42394 | 152.77608 | 27512 ft | 410 kts | 204° |
| 2026-04-23 04:45 | -28.44152 | 152.76821 | 27740 ft | 411 kts | 204° |
| 2026-04-23 04:45 | -28.47726 | 152.75220 | 28233 ft | 413 kts | 204° |
| 2026-04-23 04:45 | -28.49496 | 152.74427 | 28465 ft | 415 kts | 204° |
| 2026-04-23 04:46 | -28.52194 | 152.73217 | 28802 ft | 417 kts | 204° |
| 2026-04-23 04:46 | -28.54892 | 152.72007 | 29130 ft | 418 kts | 204° |
| 2026-04-23 04:46 | -28.57607 | 152.70789 | 29477 ft | 420 kts | 204° |
| 2026-04-23 04:46 | -28.60328 | 152.69567 | 29833 ft | 421 kts | 205° |
| 2026-04-23 04:47 | -28.63044 | 152.68347 | 30287 ft | 419 kts | 205° |
| 2026-04-23 04:47 | -28.65752 | 152.67131 | 30746 ft | 416 kts | 205° |
| 2026-04-23 04:47 | -28.68426 | 152.65929 | 31161 ft | 414 kts | 205° |
| 2026-04-23 04:47 | -28.71101 | 152.64724 | 31505 ft | 413 kts | 205° |
| 2026-04-23 04:48 | -28.73778 | 152.63518 | 31821 ft | 413 kts | 205° |
| 2026-04-23 04:48 | -28.76455 | 152.62311 | 32177 ft | 412 kts | 205° |
| 2026-04-23 04:48 | -28.79126 | 152.61107 | 32585 ft | 410 kts | 205° |
| 2026-04-23 04:48 | -28.81769 | 152.59916 | 32959 ft | 408 kts | 205° |
| 2026-04-23 04:49 | -28.84408 | 152.58721 | 33304 ft | 407 kts | 206° |
| 2026-04-23 04:49 | -28.86959 | 152.57347 | 33625 ft | 404 kts | 211° |
| 2026-04-23 04:49 | -28.89450 | 152.55873 | 33983 ft | 402 kts | 211° |
| 2026-04-23 04:49 | -28.91920 | 152.54392 | 34320 ft | 401 kts | 211° |
| 2026-04-23 04:50 | -28.94391 | 152.52905 | 34583 ft | 401 kts | 211° |
| 2026-04-23 04:50 | -28.96858 | 152.51424 | 34844 ft | 400 kts | 211° |
| 2026-04-23 04:50 | -28.99316 | 152.49953 | 35111 ft | 399 kts | 211° |
| 2026-04-23 04:50 | -29.01777 | 152.48483 | 35373 ft | 399 kts | 211° |
| 2026-04-23 04:51 | -29.04234 | 152.47018 | 35600 ft | 399 kts | 211° |
| 2026-04-23 04:51 | -29.06696 | 152.45550 | 35826 ft | 399 kts | 211° |
| 2026-04-23 04:51 | -29.09150 | 152.44087 | 36126 ft | 397 kts | 211° |
| 2026-04-23 04:51 | -29.11599 | 152.42627 | 36264 ft | 398 kts | 212° |
| 2026-04-23 04:52 | -29.16561 | 152.39662 | 36273 ft | 406 kts | 212° |
| 2026-04-23 04:52 | -29.21620 | 152.36638 | 36284 ft | 413 kts | 211° |
| 2026-04-23 04:53 | -29.26749 | 152.33571 | 36271 ft | 418 kts | 211° |
| 2026-04-23 04:53 | -29.31921 | 152.30475 | 36276 ft | 420 kts | 211° |
| 2026-04-23 04:54 | -29.37110 | 152.27365 | 36278 ft | 421 kts | 211° |
| 2026-04-23 04:54 | -29.42299 | 152.24252 | 36276 ft | 420 kts | 211° |
| 2026-04-23 04:55 | -29.47469 | 152.21147 | 36278 ft | 418 kts | 211° |
| 2026-04-23 04:55 | -29.52599 | 152.18060 | 36277 ft | 416 kts | 212° |
| 2026-04-23 04:56 | -29.57690 | 152.14992 | 36279 ft | 416 kts | 212° |
| 2026-04-23 04:56 | -29.62837 | 152.11888 | 36283 ft | 415 kts | 212° |
| 2026-04-23 04:57 | -29.67945 | 152.08807 | 36284 ft | 415 kts | 211° |
| 2026-04-23 04:57 | -29.73372 | 152.06553 | 36294 ft | 422 kts | 198° |
| 2026-04-23 04:58 | -29.79113 | 152.05094 | 36282 ft | 423 kts | 198° |
| 2026-04-23 04:58 | -29.84851 | 152.03640 | 36298 ft | 422 kts | 198° |
| 2026-04-23 04:59 | -29.90575 | 152.02159 | 36284 ft | 422 kts | 198° |
| 2026-04-23 04:59 | -29.96307 | 152.00662 | 36290 ft | 421 kts | 198° |
| 2026-04-23 05:00 | -30.02014 | 151.99165 | 36299 ft | 421 kts | 198° |
| 2026-04-23 05:00 | -30.07723 | 151.97667 | 36307 ft | 420 kts | 198° |
| 2026-04-23 05:01 | -30.13433 | 151.96167 | 36292 ft | 420 kts | 198° |
| 2026-04-23 05:01 | -30.19116 | 151.94674 | 36306 ft | 419 kts | 198° |
| 2026-04-23 05:02 | -30.24788 | 151.93181 | 36317 ft | 419 kts | 198° |
| 2026-04-23 05:02 | -30.30466 | 151.91685 | 36314 ft | 419 kts | 198° |
| 2026-04-23 05:03 | -30.35941 | 151.89591 | 36319 ft | 412 kts | 206° |
| 2026-04-23 05:03 | -30.41259 | 151.87077 | 36315 ft | 413 kts | 206° |
| 2026-04-23 05:04 | -30.46587 | 151.84563 | 36314 ft | 414 kts | 206° |
| 2026-04-23 05:04 | -30.51928 | 151.82061 | 36311 ft | 414 kts | 206° |
| 2026-04-23 05:05 | -30.57277 | 151.79561 | 36312 ft | 415 kts | 206° |
| 2026-04-23 05:05 | -30.62630 | 151.77059 | 36314 ft | 415 kts | 206° |
| 2026-04-23 05:06 | -30.67985 | 151.74552 | 36318 ft | 415 kts | 206° |
| 2026-04-23 05:06 | -30.73343 | 151.72039 | 36316 ft | 415 kts | 206° |
| 2026-04-23 05:07 | -30.78702 | 151.69524 | 36321 ft | 416 kts | 206° |
| 2026-04-23 05:07 | -30.84070 | 151.67002 | 36321 ft | 416 kts | 206° |
| 2026-04-23 05:08 | -30.89443 | 151.64474 | 36314 ft | 417 kts | 206° |
| 2026-04-23 05:08 | -30.94818 | 151.61943 | 36330 ft | 417 kts | 206° |
| 2026-04-23 05:09 | -31.00194 | 151.59407 | 36322 ft | 417 kts | 206° |
| 2026-04-23 05:09 | -31.05581 | 151.56863 | 36324 ft | 418 kts | 206° |
| 2026-04-23 05:10 | -31.10972 | 151.54314 | 36335 ft | 418 kts | 206° |
| 2026-04-23 05:10 | -31.16365 | 151.51761 | 36329 ft | 419 kts | 206° |
| 2026-04-23 05:11 | -31.21769 | 151.49200 | 36330 ft | 419 kts | 205° |
| 2026-04-23 05:11 | -31.27177 | 151.46633 | 36334 ft | 420 kts | 205° |
| 2026-04-23 05:12 | -31.32585 | 151.44063 | 36333 ft | 420 kts | 205° |
| 2026-04-23 05:12 | -31.37992 | 151.41491 | 36337 ft | 420 kts | 205° |
| 2026-04-23 05:13 | -31.43440 | 151.38999 | 36329 ft | 421 kts | 204° |
| 2026-04-23 05:14 | -31.51659 | 151.35372 | 36333 ft | 421 kts | 204° |
| 2026-04-23 05:14 | -31.57098 | 151.32954 | 36328 ft | 421 kts | 204° |
| 2026-04-23 05:15 | -31.62573 | 151.30507 | 36330 ft | 421 kts | 204° |
| 2026-04-23 05:15 | -31.68048 | 151.28055 | 36327 ft | 421 kts | 204° |
| 2026-04-23 05:16 | -31.73526 | 151.25599 | 36330 ft | 422 kts | 204° |
| 2026-04-23 05:16 | -31.78997 | 151.23145 | 36313 ft | 412 kts | 204° |
| 2026-04-23 05:17 | -31.84293 | 151.20765 | 36318 ft | 404 kts | 204° |
| 2026-04-23 05:17 | -31.86913 | 151.19585 | 36133 ft | 406 kts | 204° |
| 2026-04-23 05:17 | -31.89563 | 151.18390 | 35610 ft | 407 kts | 204° |
| 2026-04-23 05:17 | -31.92209 | 151.17198 | 35009 ft | 407 kts | 204° |
| 2026-04-23 05:18 | -31.94860 | 151.16005 | 34397 ft | 408 kts | 204° |
| 2026-04-23 05:18 | -31.97515 | 151.14813 | 33687 ft | 409 kts | 203° |
| 2026-04-23 05:18 | -32.00175 | 151.13621 | 32983 ft | 410 kts | 203° |
| 2026-04-23 05:18 | -32.02808 | 151.12442 | 32309 ft | 411 kts | 202° |
| 2026-04-23 05:19 | -32.05461 | 151.11253 | 31835 ft | 406 kts | 202° |
| 2026-04-23 05:19 | -32.08093 | 151.10073 | 31359 ft | 403 kts | 202° |
| 2026-04-23 05:19 | -32.10668 | 151.08917 | 30894 ft | 399 kts | 202° |
| 2026-04-23 05:19 | -32.12633 | 151.08034 | 30540 ft | 397 kts | 202° |
| 2026-04-23 05:20 | -32.15201 | 151.06879 | 30016 ft | 394 kts | 201° |
| 2026-04-23 05:20 | -32.17747 | 151.05733 | 29517 ft | 389 kts | 201° |
| 2026-04-23 05:20 | -32.20259 | 151.04602 | 29038 ft | 385 kts | 201° |
| 2026-04-23 05:20 | -32.22750 | 151.03479 | 28569 ft | 381 kts | 201° |
| 2026-04-23 05:21 | -32.25211 | 151.02369 | 28111 ft | 377 kts | 201° |
| 2026-04-23 05:21 | -32.27670 | 151.01260 | 27648 ft | 380 kts | 201° |
| 2026-04-23 05:21 | -32.30149 | 151.00141 | 27176 ft | 381 kts | 201° |
| 2026-04-23 05:21 | -32.32614 | 150.99027 | 26706 ft | 378 kts | 201° |
| 2026-04-23 05:22 | -32.35060 | 150.97921 | 26251 ft | 374 kts | 200° |
| 2026-04-23 05:22 | -32.37483 | 150.96826 | 25804 ft | 371 kts | 200° |
| 2026-04-23 05:22 | -32.39882 | 150.95740 | 25364 ft | 368 kts | 200° |
| 2026-04-23 05:22 | -32.42260 | 150.94664 | 24929 ft | 365 kts | 200° |
| 2026-04-23 05:23 | -32.44620 | 150.93595 | 24495 ft | 362 kts | 200° |
| 2026-04-23 05:23 | -32.46980 | 150.92549 | 24051 ft | 361 kts | 196° |
| 2026-04-23 05:23 | -32.49428 | 150.91913 | 23568 ft | 360 kts | 187° |
| 2026-04-23 05:23 | -32.51881 | 150.91694 | 23134 ft | 356 kts | 180° |
| 2026-04-23 05:24 | -32.54341 | 150.91921 | 22696 ft | 354 kts | 173° |
| 2026-04-23 05:24 | -32.56774 | 150.92356 | 22259 ft | 355 kts | 172° |
| 2026-04-23 05:24 | -32.59214 | 150.92819 | 21799 ft | 354 kts | 171° |
| 2026-04-23 05:24 | -32.61617 | 150.93274 | 21370 ft | 351 kts | 171° |
| 2026-04-23 05:25 | -32.64027 | 150.93723 | 20913 ft | 348 kts | 171° |
| 2026-04-23 05:25 | -32.66403 | 150.94159 | 20434 ft | 345 kts | 171° |
| 2026-04-23 05:25 | -32.68768 | 150.94588 | 20039 ft | 342 kts | 170° |
| 2026-04-23 05:25 | -32.71114 | 150.95012 | 19623 ft | 340 kts | 170° |
| 2026-04-23 05:26 | -32.73446 | 150.95433 | 19211 ft | 338 kts | 170° |
| 2026-04-23 05:26 | -32.75762 | 150.95851 | 18793 ft | 336 kts | 170° |
| 2026-04-23 05:26 | -32.78078 | 150.96268 | 18332 ft | 334 kts | 170° |
| 2026-04-23 05:26 | -32.80369 | 150.96680 | 17880 ft | 332 kts | 170° |
| 2026-04-23 05:27 | -32.82655 | 150.97085 | 17447 ft | 332 kts | 170° |
| 2026-04-23 05:27 | -32.84941 | 150.97490 | 17024 ft | 332 kts | 170° |
| 2026-04-23 05:27 | -32.87228 | 150.97895 | 16605 ft | 333 kts | 170° |
| 2026-04-23 05:27 | -32.89512 | 150.98299 | 16187 ft | 330 kts | 170° |
| 2026-04-23 05:28 | -32.91774 | 150.98701 | 15772 ft | 328 kts | 170° |
| 2026-04-23 05:28 | -32.94027 | 150.99101 | 15369 ft | 326 kts | 170° |
| 2026-04-23 05:28 | -32.96262 | 150.99498 | 14966 ft | 324 kts | 170° |
| 2026-04-23 05:28 | -32.98489 | 150.99894 | 14559 ft | 323 kts | 170° |
| 2026-04-23 05:29 | -33.00706 | 151.00288 | 14154 ft | 322 kts | 170° |
| 2026-04-23 05:29 | -33.02912 | 151.00681 | 13717 ft | 320 kts | 170° |
| 2026-04-23 05:29 | -33.05109 | 151.01073 | 13286 ft | 318 kts | 170° |
| 2026-04-23 05:29 | -33.07294 | 151.01463 | 12881 ft | 317 kts | 169° |
| 2026-04-23 05:30 | -33.09478 | 151.01853 | 12478 ft | 318 kts | 170° |
| 2026-04-23 05:30 | -33.11674 | 151.02245 | 12076 ft | 318 kts | 170° |
| 2026-04-23 05:30 | -33.13857 | 151.02634 | 11670 ft | 316 kts | 170° |
| 2026-04-23 05:30 | -33.16027 | 151.03022 | 11277 ft | 314 kts | 170° |
| 2026-04-23 05:31 | -33.18182 | 151.03407 | 10989 ft | 309 kts | 170° |
| 2026-04-23 05:31 | -33.20304 | 151.03786 | 10555 ft | 309 kts | 170° |
| 2026-04-23 05:31 | -33.22404 | 151.04162 | 10330 ft | 302 kts | 170° |
| 2026-04-23 05:31 | -33.23772 | 151.04407 | 10200 ft | 297 kts | 169° |
| 2026-04-23 05:32 | -33.26440 | 151.04909 | 10014 ft | 284 kts | 169° |
| 2026-04-23 05:32 | -33.28360 | 151.05280 | 9932 ft | 274 kts | 169° |
| 2026-04-23 05:32 | -33.29593 | 151.05517 | 9795 ft | 270 kts | 169° |
| 2026-04-23 05:32 | -33.31465 | 151.05879 | 9414 ft | 272 kts | 169° |
| 2026-04-23 05:33 | -33.33334 | 151.06239 | 9070 ft | 272 kts | 169° |
| 2026-04-23 05:33 | -33.35199 | 151.06597 | 8772 ft | 271 kts | 169° |
| 2026-04-23 05:33 | -33.37053 | 151.06952 | 8474 ft | 269 kts | 169° |
| 2026-04-23 05:33 | -33.38899 | 151.07307 | 8188 ft | 269 kts | 169° |
| 2026-04-23 05:34 | -33.40743 | 151.07660 | 7904 ft | 267 kts | 169° |
| 2026-04-23 05:34 | -33.42574 | 151.08011 | 7613 ft | 266 kts | 169° |
| 2026-04-23 05:34 | -33.44391 | 151.08361 | 7328 ft | 264 kts | 170° |
| 2026-04-23 05:34 | -33.46197 | 151.08708 | 7053 ft | 262 kts | 169° |
| 2026-04-23 05:35 | -33.47990 | 151.09053 | 6780 ft | 260 kts | 169° |
| 2026-04-23 05:35 | -33.49779 | 151.09397 | 6481 ft | 260 kts | 169° |
| 2026-04-23 05:35 | -33.51546 | 151.09737 | 6389 ft | 251 kts | 170° |
| 2026-04-23 05:35 | -33.53238 | 151.10062 | 6415 ft | 242 kts | 169° |
| 2026-04-23 05:36 | -33.54890 | 151.10379 | 6450 ft | 241 kts | 169° |
| 2026-04-23 05:36 | -33.56556 | 151.10702 | 6254 ft | 245 kts | 169° |
| 2026-04-23 05:36 | -33.58244 | 151.11027 | 5959 ft | 246 kts | 170° |
| 2026-04-23 05:36 | -33.59888 | 151.11344 | 5887 ft | 233 kts | 170° |
| 2026-04-23 05:37 | -33.61447 | 151.11644 | 5732 ft | 221 kts | 169° |
| 2026-04-23 05:37 | -33.62920 | 151.11934 | 5644 ft | 208 kts | 170° |
| 2026-04-23 05:37 | -33.64311 | 151.12210 | 5456 ft | 200 kts | 169° |
| 2026-04-23 05:37 | -33.65686 | 151.12481 | 5160 ft | 199 kts | 170° |
| 2026-04-23 05:38 | -33.67046 | 151.12749 | 4886 ft | 198 kts | 169° |
| 2026-04-23 05:38 | -33.68397 | 151.13015 | 4646 ft | 195 kts | 169° |
| 2026-04-23 05:38 | -33.69709 | 151.13274 | 4435 ft | 190 kts | 169° |
| 2026-04-23 05:38 | -33.71039 | 151.13376 | 4075 ft | 193 kts | 188° |
| 2026-04-23 05:39 | -33.72345 | 151.13025 | 3818 ft | 192 kts | 189° |
| 2026-04-23 05:39 | -33.73633 | 151.12698 | 3610 ft | 188 kts | 189° |
| 2026-04-23 05:39 | -33.74912 | 151.12616 | 3364 ft | 181 kts | 171° |
| 2026-04-23 05:39 | -33.76138 | 151.12831 | 3166 ft | 175 kts | 168° |
| 2026-04-23 05:40 | -33.77313 | 151.13100 | 3019 ft | 169 kts | 166° |
| 2026-04-23 05:40 | -33.78463 | 151.13388 | 2931 ft | 171 kts | 165° |
| 2026-04-23 05:40 | -33.79609 | 151.13689 | 2729 ft | 163 kts | 166° |
| 2026-04-23 05:40 | -33.80691 | 151.13965 | 2507 ft | 155 kts | 165° |
| 2026-04-23 05:41 | -33.81733 | 151.14237 | 2305 ft | 154 kts | 165° |
| 2026-04-23 05:41 | -33.82796 | 151.14514 | 2120 ft | 159 kts | 166° |
| 2026-04-23 05:41 | -33.83860 | 151.14792 | 1907 ft | 150 kts | 166° |
| 2026-04-23 05:41 | -33.84851 | 151.15051 | 1704 ft | 143 kts | 165° |
| 2026-04-23 05:42 | -33.85821 | 151.15304 | 1510 ft | 142 kts | 166° |
| 2026-04-23 05:42 | -33.86801 | 151.15560 | 1315 ft | 144 kts | 166° |
| 2026-04-23 05:42 | -33.87783 | 151.15815 | 1123 ft | 144 kts | 165° |
| 2026-04-23 05:42 | -33.88751 | 151.16068 | 935 ft | 142 kts | 165° |
| 2026-04-23 05:43 | -33.89711 | 151.16319 | 721 ft | 142 kts | 167° |
| 2026-04-23 05:43 | -33.90685 | 151.16573 | 545 ft | 143 kts | 167° |
| 2026-04-23 05:43 | -33.91669 | 151.16829 | 299 ft | 144 kts | 167° |
| 2026-04-23 05:43 | -33.92622 | 151.17073 | 125 ft | 138 kts | 167° |
| 2026-04-23 05:44 | -33.93529 | 151.17302 | 33 ft | 125 kts | 167° |
| 2026-04-23 05:44 | -33.94271 | 151.17501 | 29 ft | 89 kts | 168° |
| 2026-04-23 05:44 | -33.94729 | 151.17624 | 28 ft | 46 kts | 169° |
| 2026-04-23 05:44 | -33.95027 | 151.17699 | 27 ft | 42 kts | 167° |
| 2026-04-23 05:45 | -33.95148 | 151.17786 | 28 ft | 14 kts | 99° |
| 2026-04-23 05:45 | -33.95108 | 151.17922 | 29 ft | 21 kts | 27° |
| 2026-04-23 05:45 | -33.94963 | 151.17907 | 29 ft | 21 kts | 348° |
| 2026-04-23 05:45 | -33.94821 | 151.17872 | 29 ft | 21 kts | 348° |
| 2026-04-23 05:46 | -33.94683 | 151.17836 | 29 ft | 20 kts | 347° |
| 2026-04-23 05:46 | -33.94550 | 151.17800 | 29 ft | 19 kts | 347° |
| 2026-04-23 05:46 | -33.94422 | 151.17764 | 29 ft | 19 kts | 345° |
| 2026-04-23 05:46 | -33.94299 | 151.17724 | 29 ft | 18 kts | 345° |
| 2026-04-23 05:47 | -33.94177 | 151.17688 | 28 ft | 17 kts | 346° |
| 2026-04-23 05:47 | -33.94062 | 151.17653 | 27 ft | 17 kts | 346° |
| 2026-04-23 05:47 | -33.93950 | 151.17624 | 28 ft | 16 kts | 348° |
| 2026-04-23 05:47 | -33.93866 | 151.17676 | 28 ft | 16 kts | 70° |
| 2026-04-23 05:48 | -33.93827 | 151.17829 | 29 ft | 21 kts | 75° |
| 2026-04-23 05:48 | -33.93791 | 151.17983 | 29 ft | 13 kts | 73° |
| 2026-04-23 05:48 | -33.93742 | 151.18063 | 29 ft | 13 kts | 6° |
| 2026-04-23 05:48 | -33.93656 | 151.18051 | 29 ft | 12 kts | 359° |
| 2026-04-23 05:49 | -33.93606 | 151.18029 | 29 ft | 6 kts | 293° |
| 2026-04-23 05:49 | -33.93599 | 151.17995 | 29 ft | 2 kts | 283° |
| 2026-04-23 05:49 | -33.93597 | 151.17986 | 29 ft | 0 kts | 282° |